sensor_id;sensor_type;location;lat;lon;timestamp;P1;durP1;ratioP1;P2;durP2;ratioP2
30147;SDS011;16960;49.404;8.248;2022-07-24T00:00:54;6.23;;;5.63;;
30147;SDS011;16960;49.404;8.248;2022-07-24T00:03:21;7.57;;;5.13;;
30147;SDS011;16960;49.404;8.248;2022-07-24T00:05:48;6.00;;;5.10;;
30147;SDS011;16960;49.404;8.248;2022-07-24T00:08:15;6.17;;;5.50;;
30147;SDS011;16960;49.404;8.248;2022-07-24T00:10:42;6.00;;;5.50;;
30147;SDS011;16960;49.404;8.248;2022-07-24T00:13:09;7.40;;;5.50;;
30147;SDS011;16960;49.404;8.248;2022-07-24T00:15:37;7.53;;;6.23;;
30147;SDS011;16960;49.404;8.248;2022-07-24T00:18:04;6.50;;;5.80;;
30147;SDS011;16960;49.404;8.248;2022-07-24T00:20:31;5.63;;;5.03;;
30147;SDS011;16960;49.404;8.248;2022-07-24T00:22:58;5.87;;;5.37;;
30147;SDS011;16960;49.404;8.248;2022-07-24T00:25:25;6.10;;;4.90;;
30147;SDS011;16960;49.404;8.248;2022-07-24T00:27:52;6.20;;;5.70;;
30147;SDS011;16960;49.404;8.248;2022-07-24T00:30:19;5.83;;;5.43;;
30147;SDS011;16960;49.404;8.248;2022-07-24T00:32:48;6.10;;;5.50;;
30147;SDS011;16960;49.404;8.248;2022-07-24T00:35:15;6.10;;;5.50;;
30147;SDS011;16960;49.404;8.248;2022-07-24T00:37:43;6.00;;;5.40;;
30147;SDS011;16960;49.404;8.248;2022-07-24T00:40:11;6.53;;;5.93;;
30147;SDS011;16960;49.404;8.248;2022-07-24T00:42:39;6.57;;;5.90;;
30147;SDS011;16960;49.404;8.248;2022-07-24T00:45:06;5.50;;;5.00;;
30147;SDS011;16960;49.404;8.248;2022-07-24T00:47:33;8.50;;;5.90;;
30147;SDS011;16960;49.404;8.248;2022-07-24T00:50:02;6.37;;;5.77;;
30147;SDS011;16960;49.404;8.248;2022-07-24T00:52:30;5.80;;;5.30;;
30147;SDS011;16960;49.404;8.248;2022-07-24T00:54:58;6.00;;;5.50;;
30147;SDS011;16960;49.404;8.248;2022-07-24T00:57:25;6.33;;;5.73;;
30147;SDS011;16960;49.404;8.248;2022-07-24T00:59:52;6.77;;;6.10;;
30147;SDS011;16960;49.404;8.248;2022-07-24T01:02:19;6.83;;;6.33;;
30147;SDS011;16960;49.404;8.248;2022-07-24T01:04:46;7.63;;;6.10;;
30147;SDS011;16960;49.404;8.248;2022-07-24T01:07:15;8.80;;;6.10;;
30147;SDS011;16960;49.404;8.248;2022-07-24T01:09:42;6.80;;;6.30;;
30147;SDS011;16960;49.404;8.248;2022-07-24T01:12:10;7.53;;;6.73;;
30147;SDS011;16960;49.404;8.248;2022-07-24T01:14:38;6.63;;;6.03;;
30147;SDS011;16960;49.404;8.248;2022-07-24T01:17:05;6.47;;;5.67;;
30147;SDS011;16960;49.404;8.248;2022-07-24T01:19:32;6.90;;;6.27;;
30147;SDS011;16960;49.404;8.248;2022-07-24T01:22:00;8.00;;;6.90;;
30147;SDS011;16960;49.404;8.248;2022-07-24T01:24:27;7.30;;;6.70;;
30147;SDS011;16960;49.404;8.248;2022-07-24T01:26:54;6.47;;;5.90;;
30147;SDS011;16960;49.404;8.248;2022-07-24T01:29:21;6.77;;;6.17;;
30147;SDS011;16960;49.404;8.248;2022-07-24T01:31:48;6.07;;;5.57;;
30147;SDS011;16960;49.404;8.248;2022-07-24T01:34:15;7.03;;;6.43;;
30147;SDS011;16960;49.404;8.248;2022-07-24T01:36:42;6.73;;;6.13;;
30147;SDS011;16960;49.404;8.248;2022-07-24T01:39:10;6.70;;;6.10;;
30147;SDS011;16960;49.404;8.248;2022-07-24T01:41:37;6.97;;;6.30;;
30147;SDS011;16960;49.404;8.248;2022-07-24T01:44:04;6.80;;;6.30;;
30147;SDS011;16960;49.404;8.248;2022-07-24T01:46:31;7.83;;;7.13;;
30147;SDS011;16960;49.404;8.248;2022-07-24T01:48:58;6.37;;;5.93;;
30147;SDS011;16960;49.404;8.248;2022-07-24T01:51:25;7.60;;;6.30;;
30147;SDS011;16960;49.404;8.248;2022-07-24T01:53:52;6.43;;;6.00;;
30147;SDS011;16960;49.404;8.248;2022-07-24T01:56:20;6.77;;;6.10;;
30147;SDS011;16960;49.404;8.248;2022-07-24T01:58:47;7.50;;;6.80;;
30147;SDS011;16960;49.404;8.248;2022-07-24T02:01:14;6.80;;;6.10;;
30147;SDS011;16960;49.404;8.248;2022-07-24T02:03:41;7.70;;;6.93;;
30147;SDS011;16960;49.404;8.248;2022-07-24T02:06:08;7.20;;;6.23;;
30147;SDS011;16960;49.404;8.248;2022-07-24T02:08:35;7.20;;;5.90;;
30147;SDS011;16960;49.404;8.248;2022-07-24T02:11:02;8.60;;;6.50;;
30147;SDS011;16960;49.404;8.248;2022-07-24T02:13:30;7.70;;;7.00;;
30147;SDS011;16960;49.404;8.248;2022-07-24T02:15:57;6.60;;;6.10;;
30147;SDS011;16960;49.404;8.248;2022-07-24T02:18:24;7.10;;;6.50;;
30147;SDS011;16960;49.404;8.248;2022-07-24T02:20:52;6.57;;;6.07;;
30147;SDS011;16960;49.404;8.248;2022-07-24T02:23:19;6.67;;;6.07;;
30147;SDS011;16960;49.404;8.248;2022-07-24T02:25:46;7.53;;;6.40;;
30147;SDS011;16960;49.404;8.248;2022-07-24T02:28:14;6.53;;;6.03;;
30147;SDS011;16960;49.404;8.248;2022-07-24T02:30:43;7.07;;;6.47;;
30147;SDS011;16960;49.404;8.248;2022-07-24T02:33:10;7.40;;;6.67;;
30147;SDS011;16960;49.404;8.248;2022-07-24T02:35:37;7.10;;;6.40;;
30147;SDS011;16960;49.404;8.248;2022-07-24T02:38:05;7.30;;;6.80;;
30147;SDS011;16960;49.404;8.248;2022-07-24T02:40:31;7.37;;;6.70;;
30147;SDS011;16960;49.404;8.248;2022-07-24T02:42:59;7.40;;;6.70;;
30147;SDS011;16960;49.404;8.248;2022-07-24T02:45:26;6.50;;;6.00;;
30147;SDS011;16960;49.404;8.248;2022-07-24T02:47:55;7.20;;;6.50;;
30147;SDS011;16960;49.404;8.248;2022-07-24T02:50:24;7.20;;;6.03;;
30147;SDS011;16960;49.404;8.248;2022-07-24T02:52:55;7.10;;;6.40;;
30147;SDS011;16960;49.404;8.248;2022-07-24T02:55:22;6.23;;;5.63;;
30147;SDS011;16960;49.404;8.248;2022-07-24T02:57:49;6.90;;;6.37;;
30147;SDS011;16960;49.404;8.248;2022-07-24T03:00:16;6.60;;;6.10;;
30147;SDS011;16960;49.404;8.248;2022-07-24T03:02:43;7.43;;;6.80;;
30147;SDS011;16960;49.404;8.248;2022-07-24T03:05:12;6.67;;;6.07;;
30147;SDS011;16960;49.404;8.248;2022-07-24T03:07:39;8.50;;;6.73;;
30147;SDS011;16960;49.404;8.248;2022-07-24T03:10:07;6.57;;;6.07;;
30147;SDS011;16960;49.404;8.248;2022-07-24T03:12:36;6.53;;;5.93;;
30147;SDS011;16960;49.404;8.248;2022-07-24T03:15:03;7.23;;;6.53;;
30147;SDS011;16960;49.404;8.248;2022-07-24T03:17:31;6.10;;;5.60;;
30147;SDS011;16960;49.404;8.248;2022-07-24T03:19:58;6.70;;;6.20;;
30147;SDS011;16960;49.404;8.248;2022-07-24T03:22:26;9.00;;;7.10;;
30147;SDS011;16960;49.404;8.248;2022-07-24T03:24:53;7.63;;;6.33;;
30147;SDS011;16960;49.404;8.248;2022-07-24T03:27:20;7.70;;;6.07;;
30147;SDS011;16960;49.404;8.248;2022-07-24T03:29:47;6.93;;;6.40;;
30147;SDS011;16960;49.404;8.248;2022-07-24T03:32:14;5.93;;;5.43;;
30147;SDS011;16960;49.404;8.248;2022-07-24T03:34:41;7.07;;;6.37;;
30147;SDS011;16960;49.404;8.248;2022-07-24T03:37:08;6.97;;;6.27;;
30147;SDS011;16960;49.404;8.248;2022-07-24T03:39:36;6.83;;;6.23;;
30147;SDS011;16960;49.404;8.248;2022-07-24T03:42:03;6.90;;;6.37;;
30147;SDS011;16960;49.404;8.248;2022-07-24T03:44:30;10.80;;;5.67;;
30147;SDS011;16960;49.404;8.248;2022-07-24T03:46:57;6.10;;;5.70;;
30147;SDS011;16960;49.404;8.248;2022-07-24T03:49:24;7.07;;;6.37;;
30147;SDS011;16960;49.404;8.248;2022-07-24T03:51:51;6.90;;;6.23;;
30147;SDS011;16960;49.404;8.248;2022-07-24T03:54:18;7.37;;;6.17;;
30147;SDS011;16960;49.404;8.248;2022-07-24T03:56:46;7.63;;;6.83;;
30147;SDS011;16960;49.404;8.248;2022-07-24T03:59:13;6.40;;;5.87;;
30147;SDS011;16960;49.404;8.248;2022-07-24T04:01:41;6.43;;;5.93;;
30147;SDS011;16960;49.404;8.248;2022-07-24T04:04:08;6.37;;;5.77;;
30147;SDS011;16960;49.404;8.248;2022-07-24T04:06:35;6.60;;;6.10;;
30147;SDS011;16960;49.404;8.248;2022-07-24T04:09:02;7.27;;;6.67;;
30147;SDS011;16960;49.404;8.248;2022-07-24T04:11:30;7.00;;;6.30;;
30147;SDS011;16960;49.404;8.248;2022-07-24T04:13:59;6.63;;;6.07;;
30147;SDS011;16960;49.404;8.248;2022-07-24T04:16:26;7.70;;;7.00;;
30147;SDS011;16960;49.404;8.248;2022-07-24T04:18:53;7.00;;;6.30;;
30147;SDS011;16960;49.404;8.248;2022-07-24T04:21:20;6.60;;;6.07;;
30147;SDS011;16960;49.404;8.248;2022-07-24T04:23:47;7.33;;;6.77;;
30147;SDS011;16960;49.404;8.248;2022-07-24T04:26:14;6.70;;;6.13;;
30147;SDS011;16960;49.404;8.248;2022-07-24T04:28:41;6.63;;;6.13;;
30147;SDS011;16960;49.404;8.248;2022-07-24T04:31:09;7.10;;;6.40;;
30147;SDS011;16960;49.404;8.248;2022-07-24T04:33:36;7.63;;;6.47;;
30147;SDS011;16960;49.404;8.248;2022-07-24T04:36:04;7.50;;;6.10;;
30147;SDS011;16960;49.404;8.248;2022-07-24T04:38:31;6.60;;;6.00;;
30147;SDS011;16960;49.404;8.248;2022-07-24T04:40:58;6.13;;;5.63;;
30147;SDS011;16960;49.404;8.248;2022-07-24T04:43:25;6.80;;;6.20;;
30147;SDS011;16960;49.404;8.248;2022-07-24T04:45:52;7.20;;;6.60;;
30147;SDS011;16960;49.404;8.248;2022-07-24T04:48:21;7.53;;;6.83;;
30147;SDS011;16960;49.404;8.248;2022-07-24T04:50:50;6.60;;;6.00;;
30147;SDS011;16960;49.404;8.248;2022-07-24T04:53:17;7.50;;;6.40;;
30147;SDS011;16960;49.404;8.248;2022-07-24T04:55:44;7.43;;;5.30;;
30147;SDS011;16960;49.404;8.248;2022-07-24T04:58:11;6.73;;;5.97;;
30147;SDS011;16960;49.404;8.248;2022-07-24T05:00:38;6.70;;;5.77;;
30147;SDS011;16960;49.404;8.248;2022-07-24T05:03:05;6.50;;;5.90;;
30147;SDS011;16960;49.404;8.248;2022-07-24T05:05:33;6.73;;;6.13;;
30147;SDS011;16960;49.404;8.248;2022-07-24T05:08:00;6.37;;;5.77;;
30147;SDS011;16960;49.404;8.248;2022-07-24T05:10:27;5.80;;;5.30;;
30147;SDS011;16960;49.404;8.248;2022-07-24T05:12:54;7.10;;;6.40;;
30147;SDS011;16960;49.404;8.248;2022-07-24T05:15:21;6.07;;;5.57;;
30147;SDS011;16960;49.404;8.248;2022-07-24T05:17:48;7.50;;;6.80;;
30147;SDS011;16960;49.404;8.248;2022-07-24T05:20:15;6.13;;;5.53;;
30147;SDS011;16960;49.404;8.248;2022-07-24T05:22:43;7.03;;;6.43;;
30147;SDS011;16960;49.404;8.248;2022-07-24T05:25:10;9.10;;;6.40;;
30147;SDS011;16960;49.404;8.248;2022-07-24T05:27:37;5.83;;;5.30;;
30147;SDS011;16960;49.404;8.248;2022-07-24T05:30:05;7.10;;;6.50;;
30147;SDS011;16960;49.404;8.248;2022-07-24T05:32:33;6.33;;;5.77;;
30147;SDS011;16960;49.404;8.248;2022-07-24T05:35:00;6.87;;;6.13;;
30147;SDS011;16960;49.404;8.248;2022-07-24T05:37:27;6.70;;;6.10;;
30147;SDS011;16960;49.404;8.248;2022-07-24T05:39:56;7.40;;;6.37;;
30147;SDS011;16960;49.404;8.248;2022-07-24T05:42:23;6.20;;;5.70;;
30147;SDS011;16960;49.404;8.248;2022-07-24T05:44:49;6.57;;;5.87;;
30147;SDS011;16960;49.404;8.248;2022-07-24T05:47:16;6.37;;;5.77;;
30147;SDS011;16960;49.404;8.248;2022-07-24T05:49:43;6.07;;;5.57;;
30147;SDS011;16960;49.404;8.248;2022-07-24T05:52:10;7.93;;;6.97;;
30147;SDS011;16960;49.404;8.248;2022-07-24T05:54:37;5.80;;;5.30;;
30147;SDS011;16960;49.404;8.248;2022-07-24T05:57:06;6.63;;;6.03;;
30147;SDS011;16960;49.404;8.248;2022-07-24T05:59:33;8.93;;;5.70;;
30147;SDS011;16960;49.404;8.248;2022-07-24T06:02:00;7.37;;;6.07;;
30147;SDS011;16960;49.404;8.248;2022-07-24T06:04:29;6.20;;;5.70;;
30147;SDS011;16960;49.404;8.248;2022-07-24T06:06:56;6.83;;;6.20;;
30147;SDS011;16960;49.404;8.248;2022-07-24T06:09:23;7.30;;;6.60;;
30147;SDS011;16960;49.404;8.248;2022-07-24T06:11:50;7.43;;;6.10;;
30147;SDS011;16960;49.404;8.248;2022-07-24T06:14:18;6.00;;;5.50;;
30147;SDS011;16960;49.404;8.248;2022-07-24T06:16:45;6.53;;;5.93;;
30147;SDS011;16960;49.404;8.248;2022-07-24T06:19:12;6.30;;;5.80;;
30147;SDS011;16960;49.404;8.248;2022-07-24T06:21:39;6.37;;;5.77;;
30147;SDS011;16960;49.404;8.248;2022-07-24T06:24:06;7.07;;;6.40;;
30147;SDS011;16960;49.404;8.248;2022-07-24T06:26:33;7.67;;;5.27;;
30147;SDS011;16960;49.404;8.248;2022-07-24T06:29:00;6.17;;;5.67;;
30147;SDS011;16960;49.404;8.248;2022-07-24T06:31:28;7.57;;;6.00;;
30147;SDS011;16960;49.404;8.248;2022-07-24T06:33:55;6.50;;;5.73;;
30147;SDS011;16960;49.404;8.248;2022-07-24T06:36:22;6.27;;;5.70;;
30147;SDS011;16960;49.404;8.248;2022-07-24T06:38:49;7.80;;;5.90;;
30147;SDS011;16960;49.404;8.248;2022-07-24T06:41:16;6.67;;;6.03;;
30147;SDS011;16960;49.404;8.248;2022-07-24T06:43:43;6.73;;;5.10;;
30147;SDS011;16960;49.404;8.248;2022-07-24T06:46:10;6.37;;;5.73;;
30147;SDS011;16960;49.404;8.248;2022-07-24T06:48:39;6.47;;;5.97;;
30147;SDS011;16960;49.404;8.248;2022-07-24T06:51:06;5.50;;;5.10;;
30147;SDS011;16960;49.404;8.248;2022-07-24T06:53:32;6.83;;;6.23;;
30147;SDS011;16960;49.404;8.248;2022-07-24T06:56:00;5.40;;;5.00;;
30147;SDS011;16960;49.404;8.248;2022-07-24T06:58:27;6.60;;;5.20;;
30147;SDS011;16960;49.404;8.248;2022-07-24T07:00:54;6.57;;;5.97;;
30147;SDS011;16960;49.404;8.248;2022-07-24T07:03:21;6.57;;;5.97;;
30147;SDS011;16960;49.404;8.248;2022-07-24T07:05:49;6.40;;;5.80;;
30147;SDS011;16960;49.404;8.248;2022-07-24T07:08:16;6.30;;;5.80;;
30147;SDS011;16960;49.404;8.248;2022-07-24T07:10:43;7.53;;;6.83;;
30147;SDS011;16960;49.404;8.248;2022-07-24T07:13:10;6.47;;;5.87;;
30147;SDS011;16960;49.404;8.248;2022-07-24T07:15:37;7.43;;;5.90;;
30147;SDS011;16960;49.404;8.248;2022-07-24T07:18:04;7.20;;;6.17;;
30147;SDS011;16960;49.404;8.248;2022-07-24T07:20:31;7.27;;;6.03;;
30147;SDS011;16960;49.404;8.248;2022-07-24T07:22:59;6.70;;;5.80;;
30147;SDS011;16960;49.404;8.248;2022-07-24T07:25:26;6.90;;;6.30;;
30147;SDS011;16960;49.404;8.248;2022-07-24T07:27:54;7.37;;;6.67;;
30147;SDS011;16960;49.404;8.248;2022-07-24T07:30:21;7.27;;;6.00;;
30147;SDS011;16960;49.404;8.248;2022-07-24T07:32:48;6.90;;;6.30;;
30147;SDS011;16960;49.404;8.248;2022-07-24T07:35:15;6.33;;;5.83;;
30147;SDS011;16960;49.404;8.248;2022-07-24T07:37:44;7.07;;;6.40;;
30147;SDS011;16960;49.404;8.248;2022-07-24T07:40:12;7.30;;;6.60;;
30147;SDS011;16960;49.404;8.248;2022-07-24T07:42:39;6.77;;;6.17;;
30147;SDS011;16960;49.404;8.248;2022-07-24T07:45:06;6.23;;;5.73;;
30147;SDS011;16960;49.404;8.248;2022-07-24T07:47:35;7.10;;;6.50;;
30147;SDS011;16960;49.404;8.248;2022-07-24T07:50:02;6.30;;;5.80;;
30147;SDS011;16960;49.404;8.248;2022-07-24T07:52:29;6.30;;;5.83;;
30147;SDS011;16960;49.404;8.248;2022-07-24T07:54:56;6.30;;;5.80;;
30147;SDS011;16960;49.404;8.248;2022-07-24T07:57:25;5.70;;;5.30;;
30147;SDS011;16960;49.404;8.248;2022-07-24T07:59:52;6.97;;;6.37;;
30147;SDS011;16960;49.404;8.248;2022-07-24T08:02:18;6.60;;;6.10;;
30147;SDS011;16960;49.404;8.248;2022-07-24T08:04:45;6.50;;;5.90;;
30147;SDS011;16960;49.404;8.248;2022-07-24T08:07:12;5.83;;;5.33;;
30147;SDS011;16960;49.404;8.248;2022-07-24T08:09:39;5.80;;;5.30;;
30147;SDS011;16960;49.404;8.248;2022-07-24T08:12:07;5.70;;;5.20;;
30147;SDS011;16960;49.404;8.248;2022-07-24T08:14:35;5.90;;;5.37;;
30147;SDS011;16960;49.404;8.248;2022-07-24T08:17:02;6.40;;;5.80;;
30147;SDS011;16960;49.404;8.248;2022-07-24T08:19:29;6.90;;;5.40;;
30147;SDS011;16960;49.404;8.248;2022-07-24T08:21:56;6.43;;;5.83;;
30147;SDS011;16960;49.404;8.248;2022-07-24T08:24:23;5.50;;;5.10;;
30147;SDS011;16960;49.404;8.248;2022-07-24T08:26:50;6.07;;;5.57;;
30147;SDS011;16960;49.404;8.248;2022-07-24T08:29:17;6.07;;;5.57;;
30147;SDS011;16960;49.404;8.248;2022-07-24T08:31:45;5.33;;;4.93;;
30147;SDS011;16960;49.404;8.248;2022-07-24T08:34:12;5.97;;;5.47;;
30147;SDS011;16960;49.404;8.248;2022-07-24T08:36:39;5.37;;;5.07;;
30147;SDS011;16960;49.404;8.248;2022-07-24T08:39:09;5.23;;;4.77;;
30147;SDS011;16960;49.404;8.248;2022-07-24T08:41:36;6.63;;;5.30;;
30147;SDS011;16960;49.404;8.248;2022-07-24T08:44:04;5.67;;;5.27;;
30147;SDS011;16960;49.404;8.248;2022-07-24T08:46:32;6.03;;;5.43;;
30147;SDS011;16960;49.404;8.248;2022-07-24T08:49:03;6.20;;;5.70;;
30147;SDS011;16960;49.404;8.248;2022-07-24T08:51:32;5.23;;;4.83;;
30147;SDS011;16960;49.404;8.248;2022-07-24T08:54:01;5.10;;;4.70;;
30147;SDS011;16960;49.404;8.248;2022-07-24T08:56:28;5.20;;;4.80;;
30147;SDS011;16960;49.404;8.248;2022-07-24T08:58:58;5.20;;;4.80;;
30147;SDS011;16960;49.404;8.248;2022-07-24T09:01:25;5.40;;;5.00;;
30147;SDS011;16960;49.404;8.248;2022-07-24T09:03:52;6.00;;;5.60;;
30147;SDS011;16960;49.404;8.248;2022-07-24T09:06:20;5.97;;;5.47;;
30147;SDS011;16960;49.404;8.248;2022-07-24T09:08:56;4.97;;;4.67;;
30147;SDS011;16960;49.404;8.248;2022-07-24T09:11:24;6.00;;;5.20;;
30147;SDS011;16960;49.404;8.248;2022-07-24T09:13:58;5.37;;;4.97;;
30147;SDS011;16960;49.404;8.248;2022-07-24T09:16:43;5.73;;;5.23;;
30147;SDS011;16960;49.404;8.248;2022-07-24T09:19:11;5.67;;;5.20;;
30147;SDS011;16960;49.404;8.248;2022-07-24T09:21:40;5.10;;;4.73;;
30147;SDS011;16960;49.404;8.248;2022-07-24T09:24:11;5.13;;;4.73;;
30147;SDS011;16960;49.404;8.248;2022-07-24T09:26:42;5.40;;;5.00;;
30147;SDS011;16960;49.404;8.248;2022-07-24T09:29:11;5.30;;;4.90;;
30147;SDS011;16960;49.404;8.248;2022-07-24T09:31:54;5.37;;;4.90;;
30147;SDS011;16960;49.404;8.248;2022-07-24T09:34:23;4.97;;;4.57;;
30147;SDS011;16960;49.404;8.248;2022-07-24T09:36:59;5.00;;;4.60;;
30147;SDS011;16960;49.404;8.248;2022-07-24T09:39:28;6.20;;;5.70;;
30147;SDS011;16960;49.404;8.248;2022-07-24T09:41:57;6.03;;;5.53;;
30147;SDS011;16960;49.404;8.248;2022-07-24T09:44:25;5.00;;;4.70;;
30147;SDS011;16960;49.404;8.248;2022-07-24T09:46:55;5.03;;;4.63;;
30147;SDS011;16960;49.404;8.248;2022-07-24T09:49:24;5.50;;;5.10;;
30147;SDS011;16960;49.404;8.248;2022-07-24T09:52:09;4.70;;;4.33;;
30147;SDS011;16960;49.404;8.248;2022-07-24T09:54:39;4.53;;;4.20;;
30147;SDS011;16960;49.404;8.248;2022-07-24T09:57:17;5.40;;;5.00;;
30147;SDS011;16960;49.404;8.248;2022-07-24T09:59:46;5.17;;;4.67;;
30147;SDS011;16960;49.404;8.248;2022-07-24T10:02:14;5.17;;;4.77;;
30147;SDS011;16960;49.404;8.248;2022-07-24T10:04:43;4.77;;;4.47;;
30147;SDS011;16960;49.404;8.248;2022-07-24T10:07:13;4.73;;;4.33;;
30147;SDS011;16960;49.404;8.248;2022-07-24T10:09:42;5.23;;;4.70;;
30147;SDS011;16960;49.404;8.248;2022-07-24T10:12:11;5.63;;;5.13;;
30147;SDS011;16960;49.404;8.248;2022-07-24T10:14:39;7.30;;;4.37;;
30147;SDS011;16960;49.404;8.248;2022-07-24T10:17:08;3.90;;;3.60;;
30147;SDS011;16960;49.404;8.248;2022-07-24T10:19:40;5.00;;;4.60;;
30147;SDS011;16960;49.404;8.248;2022-07-24T10:22:11;4.90;;;4.50;;
30147;SDS011;16960;49.404;8.248;2022-07-24T10:24:53;5.30;;;4.90;;
30147;SDS011;16960;49.404;8.248;2022-07-24T10:27:23;5.30;;;4.90;;
30147;SDS011;16960;49.404;8.248;2022-07-24T10:29:53;4.90;;;3.77;;
30147;SDS011;16960;49.404;8.248;2022-07-24T10:32:22;3.97;;;3.70;;
30147;SDS011;16960;49.404;8.248;2022-07-24T10:34:53;4.37;;;3.97;;
30147;SDS011;16960;49.404;8.248;2022-07-24T10:37:29;4.10;;;3.80;;
30147;SDS011;16960;49.404;8.248;2022-07-24T10:40:04;5.50;;;5.10;;
30147;SDS011;16960;49.404;8.248;2022-07-24T10:45:37;4.57;;;4.27;;
30147;SDS011;16960;49.404;8.248;2022-07-24T10:51:06;4.90;;;4.50;;
30147;SDS011;16960;49.404;8.248;2022-07-24T10:53:44;4.37;;;4.07;;
30147;SDS011;16960;49.404;8.248;2022-07-24T10:56:16;4.43;;;4.13;;
30147;SDS011;16960;49.404;8.248;2022-07-24T10:58:51;4.33;;;4.03;;
30147;SDS011;16960;49.404;8.248;2022-07-24T11:01:37;4.73;;;4.40;;
30147;SDS011;16960;49.404;8.248;2022-07-24T11:04:26;4.43;;;4.13;;
30147;SDS011;16960;49.404;8.248;2022-07-24T11:06:56;4.10;;;3.80;;
30147;SDS011;16960;49.404;8.248;2022-07-24T11:09:28;4.43;;;4.07;;
30147;SDS011;16960;49.404;8.248;2022-07-24T11:12:05;4.83;;;4.43;;
30147;SDS011;16960;49.404;8.248;2022-07-24T11:20:04;4.73;;;4.43;;
30147;SDS011;16960;49.404;8.248;2022-07-24T11:22:43;4.87;;;4.33;;
30147;SDS011;16960;49.404;8.248;2022-07-24T11:25:16;4.43;;;4.13;;
30147;SDS011;16960;49.404;8.248;2022-07-24T11:27:48;5.07;;;4.67;;
30147;SDS011;16960;49.404;8.248;2022-07-24T11:30:18;4.10;;;3.80;;
30147;SDS011;16960;49.404;8.248;2022-07-24T11:32:47;4.13;;;3.83;;
30147;SDS011;16960;49.404;8.248;2022-07-24T11:35:14;4.50;;;4.17;;
30147;SDS011;16960;49.404;8.248;2022-07-24T11:37:42;5.13;;;4.73;;
30147;SDS011;16960;49.404;8.248;2022-07-24T11:40:13;4.50;;;4.20;;
30147;SDS011;16960;49.404;8.248;2022-07-24T11:42:41;4.30;;;4.00;;
30147;SDS011;16960;49.404;8.248;2022-07-24T11:45:09;5.03;;;4.63;;
30147;SDS011;16960;49.404;8.248;2022-07-24T11:47:36;4.70;;;4.30;;
30147;SDS011;16960;49.404;8.248;2022-07-24T11:50:05;4.43;;;4.13;;
30147;SDS011;16960;49.404;8.248;2022-07-24T11:52:34;4.50;;;4.20;;
30147;SDS011;16960;49.404;8.248;2022-07-24T11:55:04;5.00;;;4.60;;
30147;SDS011;16960;49.404;8.248;2022-07-24T11:57:33;5.03;;;4.67;;
30147;SDS011;16960;49.404;8.248;2022-07-24T12:00:01;4.93;;;4.53;;
30147;SDS011;16960;49.404;8.248;2022-07-24T12:02:29;4.40;;;4.10;;
30147;SDS011;16960;49.404;8.248;2022-07-24T12:04:56;4.33;;;4.00;;
30147;SDS011;16960;49.404;8.248;2022-07-24T12:07:25;4.63;;;4.33;;
30147;SDS011;16960;49.404;8.248;2022-07-24T12:09:54;3.83;;;3.53;;
30147;SDS011;16960;49.404;8.248;2022-07-24T12:12:27;3.67;;;3.47;;
30147;SDS011;16960;49.404;8.248;2022-07-24T12:15:00;4.37;;;4.07;;
30147;SDS011;16960;49.404;8.248;2022-07-24T12:17:28;4.90;;;4.40;;
30147;SDS011;16960;49.404;8.248;2022-07-24T12:19:57;4.40;;;4.10;;
30147;SDS011;16960;49.404;8.248;2022-07-24T12:22:27;4.30;;;4.00;;
30147;SDS011;16960;49.404;8.248;2022-07-24T12:24:55;3.93;;;3.63;;
30147;SDS011;16960;49.404;8.248;2022-07-24T12:27:33;4.70;;;4.30;;
30147;SDS011;16960;49.404;8.248;2022-07-24T12:30:02;4.63;;;4.33;;
30147;SDS011;16960;49.404;8.248;2022-07-24T12:32:30;4.00;;;3.60;;
30147;SDS011;16960;49.404;8.248;2022-07-24T12:34:57;4.10;;;3.80;;
30147;SDS011;16960;49.404;8.248;2022-07-24T12:37:24;4.13;;;3.73;;
30147;SDS011;16960;49.404;8.248;2022-07-24T12:39:52;8.40;;;1.80;;
30147;SDS011;16960;49.404;8.248;2022-07-24T12:42:28;0.20;;;0.10;;
30147;SDS011;16960;49.404;8.248;2022-07-24T12:45:04;0.20;;;0.10;;
30147;SDS011;16960;49.404;8.248;2022-07-24T12:47:34;0.30;;;0.10;;
30147;SDS011;16960;49.404;8.248;2022-07-24T12:50:16;0.20;;;0.10;;
30147;SDS011;16960;49.404;8.248;2022-07-24T12:52:43;0.20;;;0.10;;
30147;SDS011;16960;49.404;8.248;2022-07-24T12:55:21;0.20;;;0.10;;
30147;SDS011;16960;49.404;8.248;2022-07-24T12:57:56;0.20;;;0.10;;
30147;SDS011;16960;49.404;8.248;2022-07-24T13:00:25;0.20;;;0.10;;
30147;SDS011;16960;49.404;8.248;2022-07-24T13:02:52;0.20;;;0.10;;
30147;SDS011;16960;49.404;8.248;2022-07-24T13:08:05;0.20;;;0.10;;
30147;SDS011;16960;49.404;8.248;2022-07-24T13:10:34;0.20;;;0.10;;
30147;SDS011;16960;49.404;8.248;2022-07-24T13:13:01;0.20;;;0.10;;
30147;SDS011;16960;49.404;8.248;2022-07-24T13:15:28;0.30;;;0.10;;
30147;SDS011;16960;49.404;8.248;2022-07-24T13:17:55;0.20;;;0.10;;
30147;SDS011;16960;49.404;8.248;2022-07-24T13:20:22;0.20;;;0.10;;
30147;SDS011;16960;49.404;8.248;2022-07-24T13:22:49;0.30;;;0.10;;
30147;SDS011;16960;49.404;8.248;2022-07-24T13:25:16;0.20;;;0.10;;
30147;SDS011;16960;49.404;8.248;2022-07-24T13:27:44;0.30;;;0.10;;
30147;SDS011;16960;49.404;8.248;2022-07-24T13:30:12;0.20;;;0.10;;
30147;SDS011;16960;49.404;8.248;2022-07-24T13:32:39;0.23;;;0.10;;
30147;SDS011;16960;49.404;8.248;2022-07-24T13:35:07;0.20;;;0.10;;
30147;SDS011;16960;49.404;8.248;2022-07-24T13:37:34;0.20;;;0.10;;
30147;SDS011;16960;49.404;8.248;2022-07-24T13:40:02;0.20;;;0.10;;
30147;SDS011;16960;49.404;8.248;2022-07-24T13:42:30;0.20;;;0.10;;
30147;SDS011;16960;49.404;8.248;2022-07-24T13:44:59;0.30;;;0.10;;
30147;SDS011;16960;49.404;8.248;2022-07-24T13:47:26;0.20;;;0.10;;
30147;SDS011;16960;49.404;8.248;2022-07-24T13:49:53;0.20;;;0.10;;
30147;SDS011;16960;49.404;8.248;2022-07-24T13:52:20;0.20;;;0.10;;
30147;SDS011;16960;49.404;8.248;2022-07-24T13:54:47;0.20;;;0.10;;
30147;SDS011;16960;49.404;8.248;2022-07-24T13:57:14;0.30;;;0.10;;
30147;SDS011;16960;49.404;8.248;2022-07-24T13:59:40;0.20;;;0.10;;
30147;SDS011;16960;49.404;8.248;2022-07-24T14:02:09;0.20;;;0.10;;
30147;SDS011;16960;49.404;8.248;2022-07-24T14:04:36;0.20;;;0.10;;
30147;SDS011;16960;49.404;8.248;2022-07-24T14:07:03;0.30;;;0.10;;
30147;SDS011;16960;49.404;8.248;2022-07-24T14:09:30;0.20;;;0.10;;
30147;SDS011;16960;49.404;8.248;2022-07-24T14:11:57;0.20;;;0.10;;
30147;SDS011;16960;49.404;8.248;2022-07-24T14:14:24;0.20;;;0.10;;
30147;SDS011;16960;49.404;8.248;2022-07-24T14:16:51;0.27;;;0.10;;
30147;SDS011;16960;49.404;8.248;2022-07-24T14:19:21;0.30;;;0.10;;
30147;SDS011;16960;49.404;8.248;2022-07-24T14:21:48;0.20;;;0.10;;
30147;SDS011;16960;49.404;8.248;2022-07-24T14:24:16;0.30;;;0.10;;
30147;SDS011;16960;49.404;8.248;2022-07-24T14:26:44;0.30;;;0.10;;
30147;SDS011;16960;49.404;8.248;2022-07-24T14:29:12;0.30;;;0.10;;
30147;SDS011;16960;49.404;8.248;2022-07-24T14:31:39;0.30;;;0.10;;
30147;SDS011;16960;49.404;8.248;2022-07-24T14:34:06;0.30;;;0.10;;
30147;SDS011;16960;49.404;8.248;2022-07-24T14:36:35;0.30;;;0.20;;
30147;SDS011;16960;49.404;8.248;2022-07-24T14:39:02;0.30;;;0.10;;
30147;SDS011;16960;49.404;8.248;2022-07-24T14:41:29;0.30;;;0.10;;
30147;SDS011;16960;49.404;8.248;2022-07-24T14:43:57;0.30;;;0.10;;
30147;SDS011;16960;49.404;8.248;2022-07-24T14:46:24;0.30;;;0.10;;
30147;SDS011;16960;49.404;8.248;2022-07-24T14:48:51;0.30;;;0.10;;
30147;SDS011;16960;49.404;8.248;2022-07-24T14:51:18;0.30;;;0.10;;
30147;SDS011;16960;49.404;8.248;2022-07-24T14:53:47;0.30;;;0.10;;
30147;SDS011;16960;49.404;8.248;2022-07-24T14:56:14;0.30;;;0.10;;
30147;SDS011;16960;49.404;8.248;2022-07-24T14:58:41;0.30;;;0.10;;
30147;SDS011;16960;49.404;8.248;2022-07-24T15:01:08;0.30;;;0.10;;
30147;SDS011;16960;49.404;8.248;2022-07-24T15:03:35;0.30;;;0.10;;
30147;SDS011;16960;49.404;8.248;2022-07-24T15:06:02;0.30;;;0.10;;
30147;SDS011;16960;49.404;8.248;2022-07-24T15:08:29;0.30;;;0.10;;